createdAt,value
2019-05-28T00:00:10.348Z,77.26
2019-05-28T00:01:10.362Z,76.95
2019-05-28T00:02:10.327Z,77.15
2019-05-28T00:03:10.322Z,77.36
2019-05-28T00:04:10.307Z,76.95
2019-05-28T00:05:10.299Z,77.36
2019-05-28T00:06:10.287Z,77.46
2019-05-28T00:07:10.288Z,77.46
2019-05-28T00:08:10.270Z,77.26
2019-05-28T00:09:10.258Z,77.26
2019-05-28T00:10:10.351Z,77.26
2019-05-28T00:11:10.226Z,77.46
2019-05-28T00:12:10.233Z,76.86
2019-05-28T00:13:10.204Z,77.66
2019-05-28T00:14:10.199Z,77.26
2019-05-28T00:15:10.187Z,77.15
2019-05-28T00:16:10.385Z,77.15
2019-05-28T00:17:10.171Z,77.06
2019-05-28T00:18:10.152Z,77.36
2019-05-28T00:19:10.149Z,77.26
2019-05-28T00:20:10.132Z,76.75
2019-05-28T00:21:10.123Z,77.06
2019-05-28T00:22:10.148Z,77.15
2019-05-28T00:23:10.108Z,76.65
2019-05-28T00:24:10.086Z,76.04
2019-05-28T00:25:10.072Z,75.64
2019-05-28T00:26:10.059Z,75.84
2019-05-28T00:27:10.068Z,76.25
2019-05-28T00:28:10.587Z,76.04
2019-05-28T00:29:10.036Z,75.95
2019-05-28T00:30:19.805Z,76.55
2019-05-28T00:31:11.015Z,76.15
2019-05-28T00:32:10.007Z,76.15
2019-05-28T00:33:09.993Z,76.04
2019-05-28T00:34:09.974Z,75.84
2019-05-28T00:35:09.970Z,75.68
2019-05-28T00:36:09.957Z,75.84
2019-05-28T00:37:10.035Z,75.78
2019-05-28T00:38:09.930Z,75.48
2019-05-28T00:39:09.923Z,75.48
2019-05-28T00:40:09.917Z,76.18
2019-05-28T00:41:09.916Z,75.98
2019-05-28T00:42:09.901Z,76.59
2019-05-28T00:43:09.873Z,76.59
2019-05-28T00:44:09.877Z,76.93
2019-05-28T00:45:09.854Z,76.52
2019-05-28T00:46:09.848Z,77.23
2019-05-28T00:47:13.079Z,77.03
2019-05-28T00:48:09.826Z,77.13
2019-05-28T00:49:09.810Z,77.09
2019-05-28T00:50:09.810Z,77.60
2019-05-28T00:51:09.827Z,76.93
2019-05-28T00:52:09.797Z,77.39
2019-05-28T00:53:09.765Z,77.33
2019-05-28T00:54:09.759Z,77.64
2019-05-28T00:55:09.757Z,77.84
2019-05-28T00:56:09.732Z,78.04
2019-05-28T00:57:09.736Z,77.94
2019-05-28T00:58:09.717Z,78.04
2019-05-28T00:59:09.704Z,78.24
2019-05-28T01:00:09.690Z,78.55
2019-05-28T01:01:09.687Z,78.55
2019-05-28T01:02:09.695Z,78.34
2019-05-28T01:03:09.658Z,78.34
2019-05-28T01:04:09.643Z,78.44
2019-05-28T01:05:09.633Z,78.24
2019-05-28T01:06:09.628Z,78.85
2019-05-28T01:07:09.630Z,78.88
2019-05-28T01:08:10.557Z,78.78
2019-05-28T01:09:09.621Z,78.88
2019-05-28T01:10:09.610Z,79.79
2019-05-28T01:11:09.614Z,79.49
2019-05-28T01:12:09.575Z,79.29
2019-05-28T01:13:09.547Z,78.99
2019-05-28T01:14:09.539Z,79.39
2019-05-28T01:15:09.531Z,80.10
2019-05-28T01:16:09.515Z,80.00
2019-05-28T01:17:09.522Z,80.00
2019-05-28T01:18:09.494Z,80.20
2019-05-28T01:19:09.485Z,81.11
2019-05-28T01:20:16.587Z,81.15
2019-05-28T01:21:09.480Z,80.94
2019-05-28T01:22:09.461Z,81.25
2019-05-28T01:23:09.451Z,81.15
2019-05-28T01:24:14.447Z,80.94
2019-05-28T01:25:09.428Z,81.05
2019-05-28T01:26:09.407Z,80.54
2019-05-28T01:27:09.391Z,80.27
2019-05-28T01:28:09.393Z,80.47
2019-05-28T01:29:09.373Z,80.78
2019-05-28T01:30:09.362Z,80.98
2019-05-28T01:31:09.353Z,80.98
2019-05-28T01:32:09.340Z,81.09
2019-05-28T01:33:12.623Z,79.67
2019-05-28T01:34:09.329Z,79.77
2019-05-28T01:35:09.314Z,79.36
2019-05-28T01:36:09.290Z,79.46
2019-05-28T01:37:09.281Z,79.67
2019-05-28T01:38:09.303Z,79.36
2019-05-28T01:39:09.263Z,79.36
2019-05-28T01:40:09.257Z,79.46
2019-05-28T01:41:09.235Z,79.26
2019-05-28T01:42:09.222Z,78.75
2019-05-28T01:43:09.253Z,79.46
2019-05-28T01:44:09.201Z,79.26
2019-05-28T01:45:09.197Z,79.16
2019-05-28T01:46:09.186Z,79.67
2019-05-28T01:47:09.173Z,79.26
2019-05-28T01:48:09.178Z,79.57
2019-05-28T01:49:09.151Z,79.16
2019-05-28T01:50:09.136Z,79.57
2019-05-28T01:51:09.130Z,79.46
2019-05-28T01:52:09.111Z,79.57
2019-05-28T01:53:09.133Z,78.75
2019-05-28T01:54:09.097Z,78.55
2019-05-28T01:55:09.088Z,78.75
2019-05-28T01:56:09.074Z,78.55
2019-05-28T01:57:09.054Z,78.96
2019-05-28T01:58:09.065Z,78.75
2019-05-28T01:59:09.040Z,79.06
2019-05-28T02:00:09.103Z,78.05
2019-05-28T02:01:12.721Z,77.95
2019-05-28T02:02:08.998Z,77.44
2019-05-28T02:03:09.040Z,76.43
2019-05-28T02:04:08.978Z,77.14
2019-05-28T02:05:08.993Z,77.64
2019-05-28T02:06:08.951Z,77.54
2019-05-28T02:07:08.942Z,77.34
2019-05-28T02:08:08.944Z,77.75
2019-05-28T02:09:08.917Z,77.34
2019-05-28T02:10:08.911Z,77.34
2019-05-28T02:11:08.897Z,77.24
2019-05-28T02:12:08.881Z,76.73
2019-05-28T02:13:08.886Z,77.54
2019-05-28T02:14:08.859Z,77.44
2019-05-28T02:15:08.869Z,77.03
2019-05-28T02:16:08.854Z,76.93
2019-05-28T02:17:08.829Z,76.56
2019-05-28T02:18:08.829Z,76.46
2019-05-28T02:19:08.802Z,77.07
2019-05-28T02:20:08.795Z,77.48
2019-05-28T02:21:08.787Z,77.98
2019-05-28T02:22:08.769Z,77.28
2019-05-28T02:23:13.830Z,77.54
2019-05-28T02:24:08.745Z,77.07
2019-05-28T02:25:08.737Z,77.17
2019-05-28T02:26:08.730Z,77.28
2019-05-28T02:27:08.723Z,77.58
2019-05-28T02:28:08.727Z,76.26
2019-05-28T02:29:08.693Z,76.23
2019-05-28T02:30:08.857Z,75.62
2019-05-28T02:31:08.665Z,76.06
2019-05-28T02:32:08.657Z,76.77
2019-05-28T02:33:08.660Z,76.77
2019-05-28T02:34:08.637Z,77.17
2019-05-28T02:35:08.628Z,77.07
2019-05-28T02:36:09.597Z,77.28
2019-05-28T02:37:08.601Z,76.16
2019-05-28T02:38:08.598Z,75.85
2019-05-28T02:39:08.573Z,76.36
2019-05-28T02:40:08.567Z,77.17
2019-05-28T02:41:08.572Z,77.28
2019-05-28T02:42:08.541Z,77.48
2019-05-28T02:43:08.541Z,77.68
2019-05-28T02:44:08.515Z,77.28
2019-05-28T02:45:08.510Z,76.56
2019-05-28T02:46:08.508Z,77.48
2019-05-28T02:47:08.485Z,77.07
2019-05-28T02:48:08.477Z,77.17
2019-05-28T02:49:08.472Z,77.07
2019-05-28T02:50:08.452Z,76.87
2019-05-28T02:51:08.440Z,76.67
2019-05-28T02:52:08.422Z,76.16
2019-05-28T02:53:08.415Z,75.85
2019-05-28T02:54:08.410Z,76.77
2019-05-28T02:55:08.454Z,76.87
2019-05-28T02:56:08.378Z,75.76
2019-05-28T02:57:08.382Z,76.06
2019-05-28T02:58:08.364Z,75.55
2019-05-28T02:59:08.387Z,75.55
2019-05-28T03:00:08.338Z,76.16
2019-05-28T03:01:08.325Z,76.26
2019-05-28T03:02:08.332Z,77.07
2019-05-28T03:03:08.314Z,76.70
2019-05-28T03:04:08.301Z,76.80
2019-05-28T03:05:08.276Z,76.97
2019-05-28T03:06:08.262Z,77.07
2019-05-28T03:07:09.048Z,76.77
2019-05-28T03:08:08.243Z,76.77
2019-05-28T03:09:08.245Z,76.97
2019-05-28T03:10:08.220Z,76.46
2019-05-28T03:11:13.235Z,76.16
2019-05-28T03:12:08.197Z,76.16
2019-05-28T03:13:08.198Z,75.55
2019-05-28T03:14:08.181Z,76.16
2019-05-28T03:15:08.164Z,76.36
2019-05-28T03:16:11.126Z,76.56
2019-05-28T03:17:08.139Z,76.36
2019-05-28T03:18:08.128Z,76.16
2019-05-28T03:19:08.130Z,75.45
2019-05-28T03:20:08.112Z,74.44
2019-05-28T03:21:08.094Z,75.45
2019-05-28T03:22:08.080Z,76.16
2019-05-28T03:23:08.077Z,75.55
2019-05-28T03:24:08.079Z,76.26
2019-05-28T03:25:08.053Z,75.35
2019-05-28T03:26:08.152Z,76.06
2019-05-28T03:27:08.027Z,75.55
2019-05-28T03:28:08.011Z,74.74
2019-05-28T03:29:08.016Z,75.76
2019-05-28T03:30:08.001Z,76.16
2019-05-28T03:31:07.996Z,76.16
2019-05-28T03:32:09.366Z,76.36
2019-05-28T03:33:07.953Z,76.36
2019-05-28T03:34:07.941Z,75.35
2019-05-28T03:35:07.952Z,74.84
2019-05-28T03:36:07.929Z,74.95
2019-05-28T03:37:07.912Z,74.84
2019-05-28T03:38:07.907Z,75.65
2019-05-28T03:39:07.890Z,75.35
2019-05-28T03:40:07.903Z,75.76
2019-05-28T03:41:07.861Z,75.55
2019-05-28T03:42:07.855Z,74.84
2019-05-28T03:43:07.843Z,75.45
2019-05-28T03:44:07.838Z,75.55
2019-05-28T03:45:07.825Z,75.65
2019-05-28T03:46:07.808Z,75.45
2019-05-28T03:47:07.796Z,74.64
2019-05-28T03:48:07.788Z,74.95
2019-05-28T03:49:07.788Z,75.25
2019-05-28T03:50:07.779Z,74.64
2019-05-28T03:51:07.749Z,74.64
2019-05-28T03:52:07.745Z,75.25
2019-05-28T03:53:07.730Z,75.45
2019-05-28T03:54:07.720Z,75.45
2019-05-28T03:55:07.724Z,75.76
2019-05-28T03:56:07.697Z,75.35
2019-05-28T03:57:07.690Z,75.04
2019-05-28T03:58:07.734Z,75.35
2019-05-28T03:59:07.658Z,75.45
2019-05-28T04:00:07.674Z,75.35
2019-05-28T04:01:07.642Z,75.45
2019-05-28T04:02:22.688Z,75.55
2019-05-28T04:03:08.616Z,75.72
2019-05-28T04:04:07.607Z,75.04
2019-05-28T04:05:07.614Z,74.91
2019-05-28T04:06:07.584Z,75.25
2019-05-28T04:07:07.572Z,75.04
2019-05-28T04:08:07.574Z,74.91
2019-05-28T04:09:07.553Z,75.04
2019-05-28T04:10:07.586Z,74.33
2019-05-28T04:11:07.536Z,74.54
2019-05-28T04:12:07.523Z,74.60
2019-05-28T04:13:07.497Z,74.54
2019-05-28T04:14:07.497Z,74.60
2019-05-28T04:15:07.484Z,73.73
2019-05-28T04:16:07.493Z,74.54
2019-05-28T04:17:07.459Z,74.44
2019-05-28T04:18:07.450Z,74.30
2019-05-28T04:19:07.447Z,74.44
2019-05-28T04:20:07.436Z,74.71
2019-05-28T04:21:07.408Z,74.40
2019-05-28T04:22:07.395Z,74.60
2019-05-28T04:23:07.385Z,75.11
2019-05-28T04:24:07.375Z,74.51
2019-05-28T04:25:07.380Z,74.40
2019-05-28T04:26:07.356Z,74.51
2019-05-28T04:27:07.350Z,74.51
2019-05-28T04:28:07.331Z,74.20
2019-05-28T04:29:07.318Z,74.60
2019-05-28T04:30:07.327Z,74.40
2019-05-28T04:31:07.304Z,74.40
2019-05-28T04:32:07.290Z,73.19
2019-05-28T04:33:07.301Z,72.99
2019-05-28T04:34:07.281Z,74.81
2019-05-28T04:35:07.260Z,73.59
2019-05-28T04:36:07.240Z,74.40
2019-05-28T04:37:07.231Z,73.80
2019-05-28T04:38:07.222Z,74.30
2019-05-28T04:39:07.212Z,74.60
2019-05-28T04:40:07.213Z,73.09
2019-05-28T04:41:07.186Z,73.09
2019-05-28T04:42:07.175Z,72.88
2019-05-28T04:43:07.160Z,72.88
2019-05-28T04:44:07.155Z,73.59
2019-05-28T04:45:07.146Z,74.60
2019-05-28T04:46:07.122Z,73.29
2019-05-28T04:47:08.796Z,73.29
2019-05-28T04:48:07.103Z,73.29
2019-05-28T04:49:07.091Z,73.59
2019-05-28T04:50:07.082Z,74.60
2019-05-28T04:51:07.085Z,72.88
2019-05-28T04:52:12.111Z,72.17
2019-05-28T04:53:07.045Z,72.28
2019-05-28T04:54:07.033Z,72.52
2019-05-28T04:55:07.026Z,73.29
2019-05-28T04:56:07.028Z,73.83
2019-05-28T04:57:07.019Z,74.44
2019-05-28T04:58:06.994Z,74.51
2019-05-28T04:59:06.982Z,73.29
2019-05-28T05:00:06.968Z,74.10
2019-05-28T05:01:06.991Z,74.60
2019-05-28T05:02:09.425Z,73.59
2019-05-28T05:03:06.938Z,73.19
2019-05-28T05:04:06.918Z,72.99
2019-05-28T05:05:06.935Z,73.09
2019-05-28T05:06:06.931Z,73.19
2019-05-28T05:07:06.918Z,73.09
2019-05-28T05:08:06.879Z,73.36
2019-05-28T05:09:06.867Z,71.94
2019-05-28T05:10:06.856Z,72.14
2019-05-28T05:11:06.862Z,72.38
2019-05-28T05:12:06.837Z,72.48
2019-05-28T05:13:06.818Z,72.99
2019-05-28T05:14:06.812Z,72.75
2019-05-28T05:15:06.803Z,73.15
2019-05-28T05:16:06.802Z,72.85
2019-05-28T05:17:06.775Z,72.55
2019-05-28T05:18:06.767Z,73.25
2019-05-28T05:19:06.753Z,72.95
2019-05-28T05:20:06.747Z,72.14
2019-05-28T05:21:06.751Z,72.44
2019-05-28T05:22:06.729Z,72.34
2019-05-28T05:23:06.714Z,71.84
2019-05-28T05:24:06.704Z,71.53
2019-05-28T05:25:06.688Z,71.94
2019-05-28T05:26:07.057Z,71.13
2019-05-28T05:27:06.666Z,72.34
2019-05-28T05:28:06.653Z,72.14
2019-05-28T05:29:06.653Z,73.15
2019-05-28T05:30:06.631Z,72.72
2019-05-28T05:31:06.682Z,71.91
2019-05-28T05:32:06.625Z,71.50
2019-05-28T05:33:19.145Z,71.33
2019-05-28T05:34:07.587Z,71.60
2019-05-28T05:35:06.584Z,71.53
2019-05-28T05:36:06.587Z,72.21
2019-05-28T05:37:06.556Z,71.80
2019-05-28T05:38:06.574Z,71.70
2019-05-28T05:39:06.538Z,71.91
2019-05-28T05:40:06.526Z,71.30
2019-05-28T05:41:06.526Z,71.40
2019-05-28T05:42:06.501Z,70.46
2019-05-28T05:43:06.504Z,71.26
2019-05-28T05:44:06.506Z,70.76
2019-05-28T05:45:11.050Z,70.69
2019-05-28T05:46:06.479Z,69.95
2019-05-28T05:47:06.469Z,70.15
2019-05-28T05:48:06.445Z,69.34
2019-05-28T05:49:06.428Z,70.46
2019-05-28T05:50:06.412Z,70.36
2019-05-28T05:51:06.414Z,70.66
2019-05-28T05:52:06.393Z,70.76
2019-05-28T05:53:06.384Z,69.95
2019-05-28T05:54:06.368Z,69.75
2019-05-28T05:55:06.360Z,68.94
2019-05-28T05:56:06.351Z,68.43
2019-05-28T05:57:06.343Z,68.63
2019-05-28T05:58:06.338Z,69.55
2019-05-28T05:59:06.324Z,68.84
2019-05-28T06:00:06.300Z,68.84
2019-05-28T06:01:06.324Z,68.87
2019-05-28T06:02:06.348Z,69.38
2019-05-28T06:03:06.275Z,69.18
2019-05-28T06:04:06.271Z,69.48
2019-05-28T06:05:06.258Z,70.18
2019-05-28T06:06:06.242Z,68.87
2019-05-28T06:07:06.233Z,68.57
2019-05-28T06:08:06.223Z,68.47
2019-05-28T06:09:06.204Z,68.77
2019-05-28T06:10:06.197Z,68.57
2019-05-28T06:11:06.179Z,68.03
2019-05-28T06:12:06.184Z,66.52
2019-05-28T06:13:06.163Z,67.12
2019-05-28T06:14:06.162Z,67.32
2019-05-28T06:15:06.171Z,66.11
2019-05-28T06:16:06.126Z,66.82
2019-05-28T06:17:06.129Z,66.31
2019-05-28T06:18:06.120Z,65.88
2019-05-28T06:19:06.103Z,66.11
2019-05-28T06:20:06.082Z,65.47
2019-05-28T06:21:13.212Z,65.57
2019-05-28T06:22:07.073Z,65.10
2019-05-28T06:23:06.050Z,65.50
2019-05-28T06:24:06.040Z,66.01
2019-05-28T06:25:06.033Z,65.37
2019-05-28T06:26:06.035Z,65.30
2019-05-28T06:27:06.017Z,65.67
2019-05-28T06:28:05.991Z,65.27
2019-05-28T06:29:05.980Z,65.78
2019-05-28T06:30:05.986Z,63.45
2019-05-28T06:31:05.958Z,64.03
2019-05-28T06:32:06.003Z,63.12
2019-05-28T06:33:05.946Z,62.21
2019-05-28T06:34:05.935Z,62.79
2019-05-28T06:35:05.921Z,62.59
2019-05-28T06:36:05.904Z,62.28
2019-05-28T06:37:05.903Z,62.48
2019-05-28T06:38:05.892Z,62.55
2019-05-28T06:39:05.874Z,62.25
2019-05-28T06:40:05.891Z,62.25
2019-05-28T06:41:05.854Z,61.55
2019-05-28T06:42:05.859Z,60.84
2019-05-28T06:43:05.830Z,61.24
2019-05-28T06:44:05.816Z,60.64
2019-05-28T06:45:05.815Z,60.03
2019-05-28T06:46:05.796Z,60.33
2019-05-28T06:47:05.803Z,60.53
2019-05-28T06:48:05.778Z,60.13
2019-05-28T06:49:05.761Z,60.77
2019-05-28T06:50:05.764Z,60.84
2019-05-28T06:51:05.738Z,60.51
2019-05-28T06:52:05.742Z,59.93
2019-05-28T06:53:05.741Z,60.41
2019-05-28T06:54:05.710Z,60.13
2019-05-28T06:55:05.697Z,59.73
2019-05-28T06:56:05.686Z,60.51
2019-05-28T06:57:21.827Z,59.70
2019-05-28T06:58:06.667Z,60.00
2019-05-28T06:59:05.698Z,60.08
2019-05-28T07:00:05.638Z,59.77
2019-05-28T07:01:05.900Z,58.67
2019-05-28T07:02:05.631Z,59.00
2019-05-28T07:03:05.613Z,59.77
2019-05-28T07:04:13.917Z,59.77
2019-05-28T07:05:06.583Z,59.17
2019-05-28T07:06:07.857Z,59.17
2019-05-28T07:07:05.576Z,58.97
2019-05-28T07:08:05.557Z,59.47
2019-05-28T07:09:05.547Z,59.57
2019-05-28T07:10:05.534Z,59.57
2019-05-28T07:11:05.517Z,61.08
2019-05-28T07:12:05.530Z,61.96
2019-05-28T07:13:05.496Z,59.24
2019-05-28T07:14:05.490Z,58.94
2019-05-28T07:15:05.474Z,59.34
2019-05-28T07:16:05.468Z,60.45
2019-05-28T07:17:05.465Z,58.64
2019-05-28T07:18:05.443Z,58.03
2019-05-28T07:19:23.102Z,57.93
2019-05-28T07:20:06.426Z,59.44
2019-05-28T07:21:05.435Z,58.34
2019-05-28T07:22:05.411Z,58.16
2019-05-28T07:23:05.387Z,58.54
2019-05-28T07:24:05.382Z,58.94
2019-05-28T07:25:05.368Z,57.63
2019-05-28T07:26:05.359Z,58.23
2019-05-28T07:27:05.384Z,57.83
2019-05-28T07:28:10.800Z,57.76
2019-05-28T07:29:06.320Z,58.06
2019-05-28T07:30:05.318Z,57.25
2019-05-28T07:31:05.322Z,57.96
2019-05-28T07:32:05.300Z,58.06
2019-05-28T07:33:05.361Z,57.76
2019-05-28T07:34:05.270Z,58.29
2019-05-28T07:35:05.253Z,57.86
2019-05-28T07:36:05.248Z,58.47
2019-05-28T07:37:05.246Z,57.96
2019-05-28T07:38:05.245Z,57.76
2019-05-28T07:39:05.221Z,57.86
2019-05-28T07:40:05.198Z,57.96
2019-05-28T07:41:05.191Z,57.96
2019-05-28T07:42:05.185Z,58.16
2019-05-28T07:43:05.173Z,58.06
2019-05-28T07:44:05.154Z,58.34
2019-05-28T07:45:05.187Z,59.24
2019-05-28T07:46:05.131Z,60.15
2019-05-28T07:47:05.128Z,60.83
2019-05-28T07:48:05.124Z,62.13
2019-05-28T07:49:05.101Z,57.90
2019-05-28T07:50:05.087Z,57.81
2019-05-28T07:51:05.155Z,58.21
2019-05-28T07:52:05.071Z,59.01
2019-05-28T07:53:05.143Z,60.52
2019-05-28T07:54:05.047Z,58.98
2019-05-28T07:55:05.038Z,59.19
2019-05-28T07:56:05.033Z,58.98
2019-05-28T07:57:05.023Z,59.39
2019-05-28T07:58:05.006Z,59.39
2019-05-28T07:59:04.985Z,59.79
2019-05-28T08:00:05.765Z,61.30
2019-05-28T08:01:04.975Z,58.58
2019-05-28T08:02:04.962Z,59.36
2019-05-28T08:03:04.963Z,58.55
2019-05-28T08:04:04.938Z,58.86
2019-05-28T08:05:04.921Z,58.86
2019-05-28T08:06:04.913Z,58.62
2019-05-28T08:07:04.902Z,57.52
2019-05-28T08:08:04.906Z,57.92
2019-05-28T08:09:04.883Z,60.13
2019-05-28T08:10:04.869Z,59.63
2019-05-28T08:11:04.893Z,57.42
2019-05-28T08:12:04.845Z,58.02
2019-05-28T08:13:04.849Z,57.52
2019-05-28T08:14:04.836Z,57.92
2019-05-28T08:15:04.810Z,57.72
2019-05-28T08:16:17.683Z,57.79
2019-05-28T08:17:05.792Z,57.72
2019-05-28T08:18:04.794Z,58.83
2019-05-28T08:19:04.773Z,58.93
2019-05-28T08:20:04.757Z,58.00
2019-05-28T08:21:04.758Z,57.90
2019-05-28T08:22:04.738Z,57.70
2019-05-28T08:23:04.734Z,58.60
2019-05-28T08:24:04.711Z,57.29
2019-05-28T08:25:04.707Z,58.80
2019-05-28T08:26:04.715Z,57.59
2019-05-28T08:27:04.686Z,58.40
2019-05-28T08:28:19.391Z,58.27
2019-05-28T08:29:05.662Z,57.17
2019-05-28T08:30:04.646Z,58.77
2019-05-28T08:31:16.086Z,58.87
2019-05-28T08:32:05.633Z,57.17
2019-05-28T08:33:04.629Z,57.77
2019-05-28T08:34:04.601Z,59.88
2019-05-28T08:35:06.172Z,59.25
2019-05-28T08:36:04.583Z,57.57
2019-05-28T08:37:06.495Z,58.57
2019-05-28T08:38:04.560Z,58.27
2019-05-28T08:39:04.552Z,56.46
2019-05-28T08:40:04.538Z,59.14
2019-05-28T08:41:04.521Z,56.34
2019-05-28T08:42:04.518Z,57.64
2019-05-28T08:43:04.509Z,56.74
2019-05-28T08:44:04.502Z,57.67
2019-05-28T08:45:04.491Z,56.74
2019-05-28T08:46:04.476Z,57.64
2019-05-28T08:47:04.460Z,57.44
2019-05-28T08:48:04.453Z,57.84
2019-05-28T08:49:04.448Z,54.15
2019-05-28T08:50:04.432Z,55.46
2019-05-28T08:51:04.419Z,56.66
2019-05-28T08:52:04.406Z,57.77
2019-05-28T08:53:04.525Z,57.57
2019-05-28T08:54:04.391Z,55.16
2019-05-28T08:55:04.370Z,54.15
2019-05-28T08:56:04.363Z,55.05
2019-05-28T08:57:04.345Z,54.45
2019-05-28T08:58:04.382Z,54.25
2019-05-28T08:59:04.337Z,52.74
2019-05-28T09:00:04.318Z,54.35
2019-05-28T09:01:04.399Z,54.25
2019-05-28T09:02:04.290Z,57.37
2019-05-28T09:03:05.252Z,56.66
2019-05-28T09:04:04.278Z,59.27
2019-05-28T09:05:24.759Z,56.74
2019-05-28T09:06:05.251Z,52.84
2019-05-28T09:07:04.232Z,53.34
2019-05-28T09:08:04.241Z,54.25
2019-05-28T09:09:04.226Z,54.72
2019-05-28T09:10:04.204Z,52.24
2019-05-28T09:11:04.199Z,51.14
2019-05-28T09:12:04.191Z,50.93
2019-05-28T09:13:04.175Z,50.26
2019-05-28T09:14:04.186Z,50.96
2019-05-28T09:15:04.149Z,51.26
2019-05-28T09:16:04.131Z,51.46
2019-05-28T09:17:04.822Z,52.47
2019-05-28T09:18:04.545Z,51.76
2019-05-28T09:19:04.107Z,52.06
2019-05-28T09:20:04.088Z,54.28
2019-05-28T09:21:04.451Z,55.35
2019-05-28T09:22:04.076Z,53.07
2019-05-28T09:23:04.065Z,53.27
2019-05-28T09:24:04.056Z,52.77
2019-05-28T09:25:04.033Z,53.07
2019-05-28T09:26:04.021Z,53.30
2019-05-28T09:27:04.015Z,53.57
2019-05-28T09:28:04.004Z,55.68
2019-05-28T09:29:04.004Z,55.99
2019-05-28T09:30:03.979Z,53.17
2019-05-28T09:31:03.966Z,52.97
2019-05-28T09:32:03.967Z,50.86
2019-05-28T09:33:04.034Z,52.17
2019-05-28T09:34:03.947Z,52.87
2019-05-28T09:35:03.923Z,54.88
2019-05-28T09:36:08.639Z,53.07
2019-05-28T09:37:04.897Z,54.48
2019-05-28T09:38:03.891Z,50.73
2019-05-28T09:39:03.890Z,50.23
2019-05-28T09:40:03.883Z,50.63
2019-05-28T09:41:05.961Z,52.04
2019-05-28T09:42:03.846Z,50.13
2019-05-28T09:43:03.843Z,50.33
2019-05-28T09:44:03.846Z,50.91
2019-05-28T09:45:21.317Z,48.50
2019-05-28T09:46:04.796Z,48.10
2019-05-28T09:47:03.786Z,47.00
2019-05-28T09:48:03.779Z,48.32
2019-05-28T09:49:03.773Z,49.22
2019-05-28T09:50:03.776Z,49.63
2019-05-28T09:51:03.749Z,50.01
2019-05-28T09:52:03.736Z,48.80
2019-05-28T09:53:03.724Z,49.21
2019-05-28T09:54:03.712Z,48.80
2019-05-28T09:55:03.721Z,49.21
2019-05-28T09:56:03.705Z,48.50
2019-05-28T09:57:03.694Z,48.88
2019-05-28T09:58:03.664Z,51.19
2019-05-28T09:59:03.659Z,52.19
2019-05-28T10:00:03.657Z,50.59
2019-05-28T10:01:03.634Z,52.89
2019-05-28T10:02:03.626Z,55.20
2019-05-28T10:03:03.634Z,50.18
2019-05-28T10:04:03.668Z,50.48
2019-05-28T10:05:03.630Z,51.01
2019-05-28T10:06:16.210Z,53.00
2019-05-28T10:07:04.587Z,52.87
2019-05-28T10:08:03.561Z,54.80
2019-05-28T10:09:03.554Z,54.68
2019-05-28T10:10:03.551Z,50.26
2019-05-28T10:11:03.532Z,50.59
2019-05-28T10:12:03.575Z,50.16
2019-05-28T10:13:03.508Z,53.00
2019-05-28T10:14:03.490Z,52.26
2019-05-28T10:15:03.496Z,52.37
2019-05-28T10:16:03.481Z,50.96
2019-05-28T10:17:03.463Z,51.37
2019-05-28T10:18:03.475Z,52.34
2019-05-28T10:19:03.480Z,50.63
2019-05-28T10:20:03.433Z,50.94
2019-05-28T10:21:17.959Z,49.33
2019-05-28T10:22:04.412Z,48.83
2019-05-28T10:23:03.397Z,49.54
2019-05-28T10:24:03.387Z,50.54
2019-05-28T10:25:03.397Z,51.06
2019-05-28T10:26:03.364Z,53.67
2019-05-28T10:27:03.348Z,53.67
2019-05-28T10:28:03.349Z,52.57
2019-05-28T10:29:03.333Z,51.06
2019-05-28T10:30:03.326Z,50.46
2019-05-28T10:31:03.348Z,48.96
2019-05-28T10:32:03.292Z,50.04
2019-05-28T10:33:03.285Z,51.74
2019-05-28T10:34:03.300Z,52.72
2019-05-28T10:35:04.409Z,52.32
2019-05-28T10:36:03.254Z,52.17
2019-05-28T10:37:03.245Z,50.84
2019-05-28T10:38:03.278Z,48.22
2019-05-28T10:39:03.222Z,51.92
2019-05-28T10:40:03.216Z,48.42
2019-05-28T10:41:03.195Z,52.92
2019-05-28T10:42:03.178Z,50.52
2019-05-28T10:43:03.168Z,50.02
2019-05-28T10:44:03.166Z,52.52
2019-05-28T10:45:03.155Z,47.75
2019-05-28T10:46:03.192Z,46.01
2019-05-28T10:47:03.130Z,44.27
2019-05-28T10:48:03.119Z,45.92
2019-05-28T10:49:03.108Z,44.42
2019-05-28T10:50:03.115Z,43.27
2019-05-28T10:51:03.088Z,45.86
2019-05-28T10:52:03.086Z,41.60
2019-05-28T10:53:03.084Z,41.61
2019-05-28T10:54:03.053Z,39.86
2019-05-28T10:55:03.099Z,39.42
2019-05-28T10:56:03.030Z,39.32
2019-05-28T10:57:03.037Z,40.24
2019-05-28T10:58:03.013Z,38.75
2019-05-28T10:59:03.004Z,38.03
2019-05-28T11:00:03.858Z,37.00
2019-05-28T11:01:02.975Z,37.60
2019-05-28T11:02:02.968Z,39.54
2019-05-28T11:03:02.976Z,40.86
2019-05-28T11:04:02.948Z,44.50
2019-05-28T11:05:02.961Z,41.42
2019-05-28T11:06:02.944Z,41.17
2019-05-28T11:07:02.912Z,39.21
2019-05-28T11:08:02.907Z,38.75
2019-05-28T11:09:02.905Z,38.17
2019-05-28T11:10:02.898Z,39.42
2019-05-28T11:11:02.882Z,41.09
2019-05-28T11:12:02.859Z,39.50
2019-05-28T11:13:02.847Z,38.53
2019-05-28T11:14:02.849Z,38.91
2019-05-28T11:15:02.826Z,38.75
2019-05-28T11:16:02.832Z,39.21
2019-05-28T11:17:02.810Z,37.90
2019-05-28T11:18:02.798Z,38.91
2019-05-28T11:19:02.785Z,41.14
2019-05-28T11:20:02.849Z,40.36
2019-05-28T11:21:08.894Z,39.36
2019-05-28T11:22:03.755Z,39.34
2019-05-28T11:23:02.756Z,41.52
2019-05-28T11:24:02.734Z,39.72
2019-05-28T11:25:02.726Z,39.36
2019-05-28T11:26:02.724Z,41.46
2019-05-28T11:27:02.781Z,42.87
2019-05-28T11:28:02.720Z,40.50
2019-05-28T11:29:02.686Z,40.72
2019-05-28T11:30:02.668Z,41.33
2019-05-28T11:31:02.766Z,41.05
2019-05-28T11:32:02.651Z,41.38
2019-05-28T11:33:02.637Z,41.39
2019-05-28T11:34:02.626Z,42.90
2019-05-28T11:35:02.616Z,44.79
2019-05-28T11:36:02.623Z,42.61
2019-05-28T11:37:09.454Z,44.21
2019-05-28T11:38:03.587Z,46.22
2019-05-28T11:39:02.572Z,46.89
2019-05-28T11:40:02.555Z,45.47
2019-05-28T11:41:02.557Z,45.13
2019-05-28T11:42:02.539Z,46.03
2019-05-28T11:43:02.555Z,44.05
2019-05-28T11:44:02.513Z,45.65
2019-05-28T11:45:02.972Z,46.15
2019-05-28T11:46:02.505Z,46.77
2019-05-28T11:47:02.537Z,45.59
2019-05-28T11:48:02.580Z,44.51
2019-05-28T11:49:02.456Z,44.13
2019-05-28T11:50:02.710Z,46.54
2019-05-28T11:51:02.445Z,44.96
2019-05-28T11:52:02.427Z,45.66
2019-05-28T11:53:02.484Z,44.96
2019-05-28T11:54:02.404Z,45.48
2019-05-28T11:55:02.392Z,46.18
2019-05-28T11:56:02.394Z,45.18
2019-05-28T11:57:02.381Z,44.78
2019-05-28T11:58:02.370Z,44.76
2019-05-28T11:59:02.356Z,45.26
2019-05-28T12:00:02.346Z,44.46
2019-05-28T12:01:02.339Z,44.06
2019-05-28T12:02:05.075Z,43.55
2019-05-28T12:03:02.335Z,43.16
2019-05-28T12:04:02.298Z,43.05
2019-05-28T12:05:02.289Z,43.68
2019-05-28T12:06:02.296Z,44.38
2019-05-28T12:07:02.259Z,44.40
2019-05-28T12:08:02.425Z,44.90
2019-05-28T12:09:02.243Z,45.30
2019-05-28T12:10:02.576Z,46.50
2019-05-28T12:11:02.240Z,46.11
2019-05-28T12:12:02.207Z,48.81
2019-05-28T12:13:02.200Z,46.30
2019-05-28T12:14:02.182Z,47.00
2019-05-28T12:15:02.188Z,48.31
2019-05-28T12:16:02.182Z,50.62
2019-05-28T12:17:02.151Z,51.01
2019-05-28T12:18:02.306Z,49.01
2019-05-28T12:19:02.145Z,50.09
2019-05-28T12:20:02.129Z,50.49
2019-05-28T12:21:02.123Z,49.89
2019-05-28T12:22:02.100Z,50.87
2019-05-28T12:23:10.963Z,46.76
2019-05-28T12:24:03.068Z,44.16
2019-05-28T12:25:02.578Z,44.06
2019-05-28T12:26:02.049Z,45.16
2019-05-28T12:27:02.050Z,47.26
2019-05-28T12:28:02.244Z,49.87
2019-05-28T12:29:02.016Z,47.84
2019-05-28T12:30:02.073Z,47.04
2019-05-28T12:31:02.011Z,46.96
2019-05-28T12:32:02.603Z,46.44
2019-05-28T12:33:01.974Z,47.34
2019-05-28T12:34:01.966Z,47.14
2019-05-28T12:35:01.955Z,45.14
2019-05-28T12:36:01.943Z,45.34
2019-05-28T12:37:01.952Z,44.04
2019-05-28T12:38:01.920Z,45.43
2019-05-28T12:39:01.910Z,45.96
2019-05-28T12:40:01.956Z,45.26
2019-05-28T12:41:01.897Z,45.66
2019-05-28T12:42:06.712Z,45.68
2019-05-28T12:43:02.866Z,46.18
2019-05-28T12:44:01.854Z,45.98
2019-05-28T12:45:09.541Z,46.00
2019-05-28T12:46:02.832Z,46.38
2019-05-28T12:47:01.833Z,47.19
2019-05-28T12:48:11.085Z,45.68
2019-05-28T12:49:02.803Z,45.26
2019-05-28T12:50:17.866Z,47.34
2019-05-28T12:51:02.780Z,47.52
2019-05-28T12:52:01.772Z,50.29